createdAt,value
2023-04-11T00:01:02.843Z,12.97
2023-04-11T00:03:30.177Z,12.84
2023-04-11T00:05:57.593Z,12.83
2023-04-11T00:08:24.827Z,13.01
2023-04-11T00:10:52.471Z,13.34
2023-04-11T00:13:19.894Z,13.32
2023-04-11T00:15:47.880Z,13.14
2023-04-11T00:18:15.058Z,13.18
2023-04-11T00:20:42.225Z,13.00
2023-04-11T00:23:09.568Z,12.97
2023-04-11T00:25:37.407Z,12.78
2023-04-11T00:28:05.344Z,12.58
2023-04-11T00:30:34.665Z,12.54
2023-04-11T00:33:01.969Z,12.55
2023-04-11T00:35:30.160Z,12.67
2023-04-11T00:37:58.749Z,12.73
2023-04-11T00:40:25.751Z,12.68
2023-04-11T00:42:55.718Z,12.78
2023-04-11T00:45:23.191Z,13.00
2023-04-11T00:47:50.845Z,12.68
2023-04-11T00:50:22.373Z,12.66
2023-04-11T00:52:54.316Z,12.90
2023-04-11T00:55:29.603Z,12.85
2023-04-11T00:57:57.554Z,12.72
2023-04-11T01:00:28.202Z,12.86
2023-04-11T01:02:55.436Z,12.73
2023-04-11T01:05:22.902Z,12.66
2023-04-11T01:07:51.802Z,12.51
2023-04-11T01:10:19.500Z,12.59
2023-04-11T01:12:47.224Z,12.64
2023-04-11T01:15:14.716Z,12.63
2023-04-11T01:17:41.922Z,12.58
2023-04-11T01:20:10.596Z,12.51
2023-04-11T01:22:38.756Z,12.45
2023-04-11T01:25:06.380Z,12.33
2023-04-11T01:27:38.520Z,12.19
2023-04-11T01:30:07.019Z,12.50
2023-04-11T01:32:34.537Z,12.47
2023-04-11T01:35:03.526Z,12.28
2023-04-11T01:37:30.841Z,12.48
2023-04-11T01:39:57.818Z,12.41
2023-04-11T01:42:25.973Z,12.40
2023-04-11T01:44:53.816Z,12.35
2023-04-11T01:47:23.138Z,12.25
2023-04-11T01:49:50.838Z,11.90
2023-04-11T01:52:20.412Z,12.15
2023-04-11T01:54:47.450Z,12.25
2023-04-11T01:57:14.528Z,12.24
2023-04-11T01:59:41.636Z,12.31
2023-04-11T02:02:14.156Z,12.11
2023-04-11T02:04:41.347Z,11.95
2023-04-11T02:07:08.442Z,11.78
2023-04-11T02:09:36.367Z,11.70
2023-04-11T02:12:06.006Z,11.88
2023-04-11T02:14:46.361Z,12.18
2023-04-11T02:17:14.135Z,12.20
2023-04-11T02:19:45.325Z,12.30
2023-04-11T02:22:13.414Z,12.07
2023-04-11T02:24:43.330Z,12.10
2023-04-11T02:27:11.611Z,12.21
2023-04-11T02:29:41.094Z,12.05
2023-04-11T02:32:08.332Z,12.15
2023-04-11T02:34:35.672Z,12.28
2023-04-11T02:37:07.212Z,12.08
2023-04-11T02:39:34.148Z,11.95
2023-04-11T02:42:03.572Z,11.99
2023-04-11T02:44:30.928Z,11.73
2023-04-11T02:46:59.373Z,11.90
2023-04-11T02:49:28.983Z,11.84
2023-04-11T02:51:58.188Z,12.07
2023-04-11T02:54:25.199Z,12.21
2023-04-11T02:56:55.933Z,12.02
2023-04-11T02:59:26.474Z,12.23
2023-04-11T03:02:00.623Z,12.36
2023-04-11T03:04:30.373Z,12.51
2023-04-11T03:06:57.525Z,12.60
2023-04-11T03:09:27.338Z,12.25
2023-04-11T03:11:54.531Z,12.13
2023-04-11T03:14:23.733Z,12.22
2023-04-11T03:16:53.204Z,12.14
2023-04-11T03:19:20.166Z,11.89
2023-04-11T03:21:49.886Z,11.52
2023-04-11T03:24:19.271Z,11.73
2023-04-11T03:26:48.738Z,11.70
2023-04-11T03:29:16.642Z,11.55
2023-04-11T03:31:46.249Z,11.47
2023-04-11T03:34:13.242Z,11.14
2023-04-11T03:36:42.545Z,11.03
2023-04-11T03:39:10.337Z,10.97
2023-04-11T03:41:40.531Z,11.07
2023-04-11T03:44:09.488Z,10.79
2023-04-11T03:46:36.527Z,10.75
2023-04-11T03:49:08.342Z,10.96
2023-04-11T03:51:35.592Z,10.97
2023-04-11T03:54:02.748Z,10.78
2023-04-11T03:56:30.087Z,10.55
2023-04-11T03:58:57.208Z,10.62
2023-04-11T04:01:24.549Z,10.55
2023-04-11T04:03:52.109Z,10.51
2023-04-11T04:06:19.459Z,10.48
2023-04-11T04:08:46.535Z,10.00
2023-04-11T04:11:16.093Z,10.22
2023-04-11T04:13:43.715Z,10.00
2023-04-11T04:16:10.867Z,10.08
2023-04-11T04:18:37.965Z,10.23
2023-04-11T04:21:07.433Z,10.03
2023-04-11T04:23:36.130Z,10.32
2023-04-11T04:26:03.645Z,10.66
2023-04-11T04:28:31.133Z,10.34
2023-04-11T04:31:02.488Z,10.31
2023-04-11T04:33:33.283Z,10.59
2023-04-11T04:36:02.183Z,10.69
2023-04-11T04:38:29.892Z,10.78
2023-04-11T04:41:02.054Z,10.71
2023-04-11T04:43:35.997Z,10.55
2023-04-11T04:46:03.081Z,10.51
2023-04-11T04:48:30.473Z,10.20
2023-04-11T04:50:57.547Z,10.02
2023-04-11T04:53:24.775Z,10.00
2023-04-11T04:55:51.915Z,10.04
2023-04-11T04:58:21.264Z,10.26
2023-04-11T05:00:56.137Z,10.06
2023-04-11T05:03:23.838Z,10.10
2023-04-11T05:05:53.522Z,10.05
2023-04-11T05:08:21.194Z,10.19
2023-04-11T05:10:48.362Z,10.39
2023-04-11T05:13:15.311Z,10.56
2023-04-11T05:15:49.594Z,10.34
2023-04-11T05:18:19.347Z,10.44
2023-04-11T05:20:46.415Z,10.06
2023-04-11T05:23:13.552Z,10.08
2023-04-11T05:25:40.815Z,9.91
2023-04-11T05:28:07.697Z,9.95
2023-04-11T05:30:40.295Z,9.96
2023-04-11T05:33:08.566Z,9.91
2023-04-11T05:35:38.269Z,10.02
2023-04-11T05:38:05.483Z,9.85
2023-04-11T05:40:35.450Z,9.85
2023-04-11T05:43:06.055Z,10.06
2023-04-11T05:45:33.170Z,10.44
2023-04-11T05:48:00.348Z,10.44
2023-04-11T05:50:32.791Z,10.41
2023-04-11T05:53:00.165Z,10.48
2023-04-11T05:55:29.693Z,10.14
2023-04-11T05:57:56.820Z,10.19
2023-04-11T06:00:28.722Z,10.30
2023-04-11T06:02:58.880Z,10.51
2023-04-11T06:05:31.645Z,10.47
2023-04-11T06:07:59.996Z,10.52
2023-04-11T06:10:28.279Z,10.78
2023-04-11T06:12:55.600Z,10.50
2023-04-11T06:15:26.729Z,10.79
2023-04-11T06:17:54.279Z,10.50
2023-04-11T06:20:22.957Z,10.62
2023-04-11T06:22:51.703Z,10.53
2023-04-11T06:25:20.467Z,10.87
2023-04-11T06:27:48.303Z,10.94
2023-04-11T06:30:15.679Z,11.06
2023-04-11T06:32:42.964Z,11.57
2023-04-11T06:35:10.647Z,11.20
2023-04-11T06:37:38.135Z,11.17
2023-04-11T06:40:08.362Z,10.70
2023-04-11T06:42:35.755Z,10.86
2023-04-11T06:45:06.118Z,10.85
2023-04-11T06:47:37.978Z,11.16
2023-04-11T06:50:06.043Z,11.01
2023-04-11T06:52:33.011Z,11.62
2023-04-11T06:55:02.402Z,11.49
2023-04-11T06:57:29.516Z,11.35
2023-04-11T06:59:58.918Z,11.43
2023-04-11T07:02:28.240Z,11.40
2023-04-11T07:04:55.465Z,11.62
2023-04-11T07:07:27.607Z,11.58
2023-04-11T07:09:54.491Z,11.26
2023-04-11T07:12:21.441Z,11.29
2023-04-11T07:14:48.659Z,11.80
2023-04-11T07:17:15.857Z,12.01
2023-04-11T07:19:42.857Z,11.86
2023-04-11T07:22:13.054Z,11.74
2023-04-11T07:24:42.216Z,12.16
2023-04-11T07:27:09.788Z,12.27
2023-04-11T07:29:36.760Z,12.11
2023-04-11T07:32:03.863Z,11.41
2023-04-11T07:34:33.229Z,11.16
2023-04-11T07:37:00.994Z,11.29
2023-04-11T07:39:30.138Z,11.53
2023-04-11T07:41:57.115Z,11.61
2023-04-11T07:44:24.212Z,11.21
2023-04-11T07:46:51.359Z,11.19
2023-04-11T07:49:18.544Z,11.52
2023-04-11T07:51:45.628Z,11.63
2023-04-11T07:54:14.983Z,11.99
2023-04-11T07:56:41.914Z,12.00
2023-04-11T07:59:08.799Z,12.16
2023-04-11T08:01:38.299Z,12.53
2023-04-11T08:04:06.199Z,12.89
2023-04-11T08:06:34.478Z,13.39
2023-04-11T08:09:04.113Z,13.96
2023-04-11T08:11:33.392Z,13.94
2023-04-11T08:14:00.379Z,13.67
2023-04-11T08:16:27.423Z,13.48
2023-04-11T08:18:54.535Z,13.79
2023-04-11T08:21:23.617Z,13.83
2023-04-11T08:23:53.590Z,13.75
2023-04-11T08:26:21.221Z,14.00
2023-04-11T08:28:50.764Z,13.51
2023-04-11T08:31:19.954Z,13.60
2023-04-11T08:33:50.153Z,13.86
2023-04-11T08:36:17.243Z,13.09
2023-04-11T08:38:46.643Z,13.18
2023-04-11T08:41:14.509Z,13.09
2023-04-11T08:43:41.490Z,13.07
2023-04-11T08:46:12.884Z,12.64
2023-04-11T08:48:39.991Z,13.09
2023-04-11T08:51:07.560Z,13.60
2023-04-11T08:53:36.898Z,13.33
2023-04-11T08:56:04.431Z,13.41
2023-04-11T08:58:34.061Z,12.96
2023-04-11T09:01:29.003Z,13.50
2023-04-11T09:04:00.566Z,14.73
2023-04-11T09:06:34.029Z,15.24
2023-04-11T09:09:06.894Z,17.46
2023-04-11T09:11:58.919Z,18.45
2023-04-11T09:14:27.100Z,19.79
2023-04-11T09:17:13.784Z,19.07
2023-04-11T09:19:49.215Z,18.25
2023-04-11T09:22:16.620Z,16.59
2023-04-11T09:24:46.705Z,15.73
2023-04-11T09:27:19.765Z,15.16
2023-04-11T09:29:48.893Z,15.11
2023-04-11T09:32:35.281Z,15.34
2023-04-11T09:35:24.157Z,14.64
2023-04-11T09:37:59.101Z,14.59
2023-04-11T09:40:42.608Z,14.10
2023-04-11T09:43:09.707Z,13.82
2023-04-11T09:45:47.778Z,13.39
2023-04-11T09:48:22.140Z,13.20
2023-04-11T09:50:54.383Z,13.39
2023-04-11T09:53:23.536Z,12.92
2023-04-11T09:55:50.933Z,12.35
2023-04-11T09:58:19.240Z,12.17
2023-04-11T10:00:48.440Z,12.11
2023-04-11T10:03:16.692Z,12.24
2023-04-11T10:05:48.919Z,12.10
2023-04-11T10:08:32.686Z,12.14
2023-04-11T10:11:00.846Z,12.20
2023-04-11T10:13:46.608Z,11.79
2023-04-11T10:16:24.251Z,11.67
2023-04-11T10:18:53.899Z,11.72
2023-04-11T10:21:39.834Z,11.01
2023-04-11T10:24:11.238Z,11.06
2023-04-11T10:27:06.272Z,10.88
2023-04-11T10:29:33.246Z,10.46
2023-04-11T10:32:20.429Z,10.56
2023-04-11T10:34:50.142Z,10.56
2023-04-11T10:37:34.120Z,10.46
2023-04-11T10:40:05.775Z,10.42
2023-04-11T10:42:36.273Z,10.43
2023-04-11T10:45:30.851Z,10.27
2023-04-11T10:48:05.959Z,10.20
2023-04-11T10:50:37.611Z,10.29
2023-04-11T10:53:09.993Z,10.40
2023-04-11T10:55:48.632Z,10.40
2023-04-11T10:58:21.660Z,10.66
2023-04-11T11:00:51.811Z,10.55
2023-04-11T11:03:31.642Z,10.77
2023-04-11T11:06:07.275Z,10.85
2023-04-11T11:08:41.892Z,10.99
2023-04-11T11:11:13.677Z,11.11
2023-04-11T11:13:53.152Z,11.27
2023-04-11T11:16:23.721Z,11.30
2023-04-11T11:19:02.060Z,11.24
2023-04-11T11:21:34.658Z,11.33
2023-04-11T11:24:03.837Z,11.64
2023-04-11T11:26:43.098Z,12.08
2023-04-11T11:29:11.380Z,12.19
2023-04-11T11:31:40.046Z,12.77
2023-04-11T11:34:22.863Z,13.64
2023-04-11T11:36:53.468Z,14.51
2023-04-11T11:39:24.145Z,14.62
2023-04-11T11:41:52.325Z,15.39
2023-04-11T11:44:30.096Z,16.07
2023-04-11T11:47:16.238Z,16.87
2023-04-11T11:49:47.873Z,16.44
2023-04-11T11:52:38.047Z,15.61
2023-04-11T11:55:19.086Z,15.81
2023-04-11T11:57:49.766Z,15.41
2023-04-11T12:00:26.237Z,15.49
2023-04-11T12:03:00.784Z,15.69
2023-04-11T12:05:31.305Z,14.96
2023-04-11T12:08:01.215Z,14.30
2023-04-11T12:10:42.780Z,13.83
2023-04-11T12:13:27.189Z,12.63
2023-04-11T12:16:01.405Z,11.68
2023-04-11T12:18:28.779Z,11.33
2023-04-11T12:20:56.254Z,11.17
2023-04-11T12:23:23.334Z,11.03
2023-04-11T12:25:50.587Z,11.17
2023-04-11T12:28:19.801Z,10.88
2023-04-11T12:30:47.201Z,10.98
2023-04-11T12:33:14.158Z,11.02
2023-04-11T12:35:44.097Z,11.04
2023-04-11T12:38:17.838Z,11.63
2023-04-11T12:40:46.340Z,11.77
2023-04-11T12:43:18.426Z,11.79
2023-04-11T12:45:47.864Z,12.10
2023-04-11T12:48:14.879Z,12.55
2023-04-11T12:50:42.048Z,13.00
2023-04-11T12:53:09.098Z,13.67
2023-04-11T12:55:36.313Z,14.19
2023-04-11T12:58:06.832Z,15.14
2023-04-11T13:00:36.326Z,16.45
2023-04-11T13:03:06.082Z,17.04
2023-04-11T13:05:37.239Z,17.18
2023-04-11T13:08:06.592Z,17.21
2023-04-11T13:10:33.931Z,17.65
2023-04-11T13:13:15.401Z,17.40
2023-04-11T13:15:46.541Z,17.23
2023-04-11T13:18:15.940Z,16.44
2023-04-11T13:20:43.333Z,15.43
2023-04-11T13:23:11.509Z,14.47
2023-04-11T13:25:38.638Z,14.50
2023-04-11T13:28:05.663Z,14.17
2023-04-11T13:30:35.732Z,13.63
2023-04-11T13:33:05.414Z,13.46
2023-04-11T13:35:32.414Z,13.16
2023-04-11T13:38:03.418Z,12.97
2023-04-11T13:40:31.088Z,12.31
2023-04-11T13:42:58.136Z,12.50
2023-04-11T13:45:27.599Z,12.52
2023-04-11T13:47:54.653Z,12.22
2023-04-11T13:50:21.600Z,12.42
2023-04-11T13:52:51.417Z,12.55
2023-04-11T13:55:18.571Z,12.62
2023-04-11T13:57:45.574Z,12.77
2023-04-11T14:00:14.431Z,12.94
2023-04-11T14:02:42.445Z,12.93
2023-04-11T14:05:13.077Z,13.06
2023-04-11T14:07:41.162Z,13.00
2023-04-11T14:10:09.017Z,12.81
2023-04-11T14:12:36.729Z,13.25
2023-04-11T14:15:07.850Z,13.53
2023-04-11T14:17:34.895Z,13.17
2023-04-11T14:20:06.987Z,13.28
2023-04-11T14:22:34.737Z,13.40
2023-04-11T14:25:01.895Z,13.86
2023-04-11T14:27:31.918Z,14.48
2023-04-11T14:30:01.436Z,14.81
2023-04-11T14:32:31.561Z,14.89
2023-04-11T14:35:00.724Z,15.30
2023-04-11T14:37:28.911Z,15.33
2023-04-11T14:39:58.649Z,15.20
2023-04-11T14:42:26.074Z,15.16
2023-04-11T14:44:55.440Z,14.33
2023-04-11T14:47:23.012Z,14.30
2023-04-11T14:49:50.501Z,13.90
2023-04-11T14:52:20.320Z,13.93
2023-04-11T14:54:47.485Z,13.00
2023-04-11T14:57:19.258Z,12.13
2023-04-11T14:59:46.667Z,11.91
2023-04-11T15:02:14.975Z,11.31
2023-04-11T15:04:44.488Z,11.12
2023-04-11T15:07:13.735Z,10.95
2023-04-11T15:09:41.002Z,10.97
2023-04-11T15:12:08.194Z,10.90
2023-04-11T15:14:35.315Z,11.10
2023-04-11T15:17:06.564Z,11.40
2023-04-11T15:19:36.705Z,11.43
2023-04-11T15:22:04.521Z,11.61
2023-04-11T15:24:31.844Z,12.21
2023-04-11T15:26:59.073Z,12.69
2023-04-11T15:29:28.322Z,13.28
2023-04-11T15:31:55.626Z,13.69
2023-04-11T15:34:23.406Z,13.78
2023-04-11T15:36:54.339Z,13.54
2023-04-11T15:39:23.775Z,13.31
2023-04-11T15:41:50.814Z,13.22
2023-04-11T15:44:18.376Z,13.10
2023-04-11T15:46:46.929Z,12.69
2023-04-11T15:49:15.873Z,12.60
2023-04-11T15:51:46.622Z,12.52
2023-04-11T15:54:13.874Z,12.36
2023-04-11T15:56:41.156Z,12.54
2023-04-11T15:59:11.642Z,12.67
2023-04-11T16:01:40.437Z,12.93
2023-04-11T16:04:09.581Z,13.08
2023-04-11T16:06:37.127Z,13.04
2023-04-11T16:09:04.472Z,13.09
2023-04-11T16:11:31.746Z,13.44
2023-04-11T16:13:59.799Z,13.46
2023-04-11T16:16:26.985Z,13.44
2023-04-11T16:18:59.429Z,13.19
2023-04-11T16:21:28.822Z,13.03
2023-04-11T16:23:56.703Z,12.96
2023-04-11T16:26:24.047Z,12.86
2023-04-11T16:28:51.383Z,12.77
2023-04-11T16:31:24.267Z,12.97
2023-04-11T16:33:56.746Z,12.48
2023-04-11T16:36:24.296Z,12.63
2023-04-11T16:38:51.229Z,12.64
2023-04-11T16:41:21.694Z,12.75
2023-04-11T16:43:51.114Z,12.73
2023-04-11T16:46:18.141Z,12.61
2023-04-11T16:48:45.502Z,12.43
2023-04-11T16:51:13.410Z,12.55
2023-04-11T16:53:41.150Z,12.38
2023-04-11T16:56:10.630Z,12.15
2023-04-11T16:58:37.793Z,12.06
2023-04-11T17:01:09.796Z,12.46
2023-04-11T17:03:43.437Z,12.32
2023-04-11T17:06:16.883Z,12.17
2023-04-11T17:09:02.668Z,12.02
2023-04-11T17:11:37.389Z,12.18
2023-04-11T17:14:08.743Z,11.74
2023-04-11T17:16:37.407Z,11.80
2023-04-11T17:19:09.083Z,11.84
2023-04-11T17:21:53.267Z,11.89
2023-04-11T17:24:30.424Z,11.97
2023-04-11T17:27:01.353Z,11.91
2023-04-11T17:29:37.615Z,12.01
2023-04-11T17:32:17.637Z,11.99
2023-04-11T17:34:53.542Z,12.21
2023-04-11T17:37:48.369Z,12.17
2023-04-11T17:40:24.808Z,12.14
2023-04-11T17:43:01.041Z,12.35
2023-04-11T17:45:50.084Z,12.18
2023-04-11T17:48:23.035Z,12.12
2023-04-11T17:50:54.075Z,12.10
2023-04-11T17:53:35.171Z,11.88
2023-04-11T17:56:07.148Z,11.59
2023-04-11T17:58:48.372Z,11.62
2023-04-11T18:01:16.189Z,11.50
2023-04-11T18:03:47.442Z,11.63
2023-04-11T18:06:15.362Z,11.76
2023-04-11T18:08:52.105Z,11.82
2023-04-11T18:11:24.245Z,11.83
2023-04-11T18:13:54.059Z,11.78
2023-04-11T18:16:21.855Z,11.84
2023-04-11T18:18:52.043Z,11.86
2023-04-11T18:21:26.474Z,11.44
2023-04-11T18:23:57.172Z,11.61
2023-04-11T18:26:27.330Z,11.63
2023-04-11T18:29:00.407Z,11.61
2023-04-11T18:31:27.512Z,11.40
2023-04-11T18:33:56.552Z,11.17
2023-04-11T18:36:25.208Z,10.84
2023-04-11T18:38:53.304Z,10.41
2023-04-11T18:42:07.693Z,10.51
2023-04-11T18:44:39.749Z,10.51
2023-04-11T18:47:13.831Z,10.58
2023-04-11T18:49:48.604Z,10.67
2023-04-11T18:52:19.421Z,10.68
2023-04-11T18:54:47.690Z,10.66
2023-04-11T18:57:33.618Z,10.64
2023-04-11T19:00:24.613Z,10.40
2023-04-11T19:02:53.424Z,10.41
2023-04-11T19:05:25.531Z,10.55
2023-04-11T19:07:56.929Z,10.50
2023-04-11T19:10:26.132Z,10.42
2023-04-11T19:12:54.304Z,10.26
2023-04-11T19:15:24.670Z,10.36
2023-04-11T19:17:51.855Z,10.36
2023-04-11T19:20:21.283Z,10.23
2023-04-11T19:22:50.770Z,10.35
2023-04-11T19:25:18.218Z,10.30
2023-04-11T19:27:46.593Z,10.20
2023-04-11T19:30:18.600Z,10.12
2023-04-11T19:32:48.254Z,10.20
2023-04-11T19:35:21.510Z,10.26
2023-04-11T19:37:49.449Z,10.19
2023-04-11T19:40:18.738Z,10.08
2023-04-11T19:42:49.384Z,10.14
2023-04-11T19:45:20.188Z,10.19
2023-04-11T19:47:48.069Z,9.88
2023-04-11T19:50:15.772Z,10.00
2023-04-11T19:52:43.812Z,9.95
2023-04-11T19:55:14.317Z,10.08
2023-04-11T19:57:43.754Z,10.22
2023-04-11T20:00:16.428Z,10.14
2023-04-11T20:02:48.813Z,9.79
2023-04-11T20:05:19.796Z,9.62
2023-04-11T20:07:49.679Z,9.52
2023-04-11T20:10:19.169Z,9.32
2023-04-11T20:12:46.139Z,9.08
2023-04-11T20:15:15.759Z,9.07
2023-04-11T20:17:46.877Z,9.11
2023-04-11T20:20:17.290Z,9.22
2023-04-11T20:22:44.915Z,9.14
2023-04-11T20:25:14.705Z,9.27
2023-04-11T20:27:43.756Z,9.15
2023-04-11T20:30:12.160Z,9.14
2023-04-11T20:32:40.496Z,8.98
2023-04-11T20:35:16.627Z,8.69
2023-04-11T20:37:43.902Z,8.59
2023-04-11T20:40:13.045Z,8.58
2023-04-11T20:42:45.391Z,8.64
2023-04-11T20:45:17.950Z,8.63
2023-04-11T20:47:50.262Z,8.54
2023-04-11T20:50:19.359Z,8.47
2023-04-11T20:52:53.195Z,8.65
2023-04-11T20:55:22.624Z,8.68
2023-04-11T20:57:52.122Z,8.73
2023-04-11T21:00:19.980Z,8.77
2023-04-11T21:02:50.378Z,8.76
2023-04-11T21:05:24.915Z,8.83
2023-04-11T21:07:55.421Z,8.72
2023-04-11T21:10:25.042Z,8.59
2023-04-11T21:12:53.700Z,8.47
2023-04-11T21:15:21.737Z,8.56
2023-04-11T21:17:53.614Z,8.59
2023-04-11T21:20:23.449Z,8.60
2023-04-11T21:22:55.930Z,8.55
2023-04-11T21:25:24.166Z,8.51
2023-04-11T21:27:53.773Z,8.41
2023-04-11T21:30:20.974Z,8.47
2023-04-11T21:32:48.434Z,8.44
2023-04-11T21:35:15.869Z,8.33
2023-04-11T21:37:42.879Z,8.33
2023-04-11T21:40:14.375Z,8.37
2023-04-11T21:42:41.427Z,8.34
2023-04-11T21:45:19.661Z,8.29
2023-04-11T21:47:46.891Z,8.34
2023-04-11T21:50:14.704Z,8.21
2023-04-11T21:52:41.869Z,8.07
2023-04-11T21:55:10.031Z,8.04
2023-04-11T21:57:37.417Z,7.86
2023-04-11T22:00:06.367Z,7.86
2023-04-11T22:02:35.739Z,7.80
2023-04-11T22:05:10.047Z,7.80
2023-04-11T22:07:46.336Z,7.70
2023-04-11T22:10:22.922Z,7.56
2023-04-11T22:12:53.857Z,7.62
2023-04-11T22:15:21.469Z,7.58
2023-04-11T22:17:58.816Z,7.55
2023-04-11T22:20:26.267Z,7.33
2023-04-11T22:22:53.428Z,7.30
2023-04-11T22:25:22.743Z,7.24
2023-04-11T22:27:54.805Z,7.24
2023-04-11T22:30:24.980Z,7.35
2023-04-11T22:32:56.171Z,7.14
2023-04-11T22:35:25.903Z,7.01
2023-04-11T22:37:58.155Z,7.01
2023-04-11T22:40:26.692Z,6.91
2023-04-11T22:42:56.446Z,7.01
2023-04-11T22:45:24.492Z,6.95
2023-04-11T22:48:00.091Z,6.57
2023-04-11T22:50:27.852Z,6.67
2023-04-11T22:52:55.058Z,6.73
2023-04-11T22:55:25.117Z,6.42
2023-04-11T22:57:52.263Z,6.37
2023-04-11T23:00:20.146Z,6.21
2023-04-11T23:02:47.343Z,6.43
2023-04-11T23:05:14.768Z,6.38
2023-04-11T23:07:41.983Z,6.43
2023-04-11T23:10:15.706Z,6.31
2023-04-11T23:12:45.211Z,6.47
2023-04-11T23:15:12.982Z,6.53
2023-04-11T23:17:40.201Z,6.45
2023-04-11T23:20:13.994Z,6.63
2023-04-11T23:22:42.620Z,6.74
2023-04-11T23:25:15.959Z,6.80
2023-04-11T23:27:47.585Z,6.57
2023-04-11T23:30:17.534Z,6.48
2023-04-11T23:32:44.691Z,6.52
2023-04-11T23:35:17.050Z,6.35
2023-04-11T23:37:47.254Z,6.36
2023-04-11T23:40:16.949Z,6.47
2023-04-11T23:42:44.348Z,6.59
2023-04-11T23:45:12.887Z,6.72
2023-04-11T23:47:45.332Z,6.68
2023-04-11T23:50:14.696Z,6.72
2023-04-11T23:52:41.709Z,6.73
2023-04-11T23:55:09.493Z,6.25
2023-04-11T23:57:36.581Z,6.01
